Buffalo, WY

11:14 AM MDT on October 24, 2014 (GMT -0600)
Esponda Ranch | Change Station
CLOSE
Current Station
Personal Weather Station
Location: Buffalo, WY
Elevation: 4665 ft
Nearby Weather Stations

Elev 4665 ft 44.32 °N, 106.67 °W | Updated 3 minutes ago

Overcast
Overcast
62.4 °F
Feels Like 62.4 °F
N
5.0
Wind Variable Wind from NNE
Gusts 8.0 mph

Today
High -- | Low -- °F
--% Chance of Precip.
Yesterday
High -- | Low -- °F
Precip. -- in
7:33 AM 6:07 PM
New Moon, 1% visible
Pressure 30.01 in
Visibility 10.0 miles
Clouds Overcast 10000 ft
Dew Point 33 °F
Humidity 33%
Rainfall 0.00 in
Snow Depth Not available.
UV 1 out of 12
Pollen 1.60 out of 12
Air Quality Not available.
Flu Activity Sporadic
METAR KBYG 241653Z AUTO 35008KT 10SM OVC100 16/M03 A3011 RMK AO2 SLP162 T01561028

More Conditions Fewer Conditions

Pressure 30.01 in
Visibility 10.0 miles
Clouds Overcast 10000 ft
Dew Point 33 °F
Humidity 33%
Rainfall 0.00 in
Snow Depth Not available.
UV 1 out of 12
Pollen 1.60 out of 12
Air Quality Not available.
Flu Activity Sporadic
METAR KBYG 241653Z AUTO 35008KT 10SM OVC100 16/M03 A3011 RMK AO2 SLP162 T01561028

More Conditions Fewer Conditions

10-Day Weather Forecast

Almanac

Astronomy

Oct. 24, 2014 Rise Set
Actual Time 7:33 AM MDT 6:07 PM MDT
Civil Twilight 7:03 AM MDT 6:37 PM MDT
Nautical Twilight 6:29 AM MDT 7:11 PM MDT
Astronomical Twilight 5:56 AM MDT 7:45 PM MDT
Moon 8:16 AM MDT 6:47 PM MDT
Length of Visible Light 11h 33m
Length of Day
10h 34m
Tomorrow will be 2m 52s shorter.
New Moon, 1% of the Moon is Illuminated
Today
New Moon
Oct 30
First Quarter
Nov 6
Full
Nov 14
Last Quarter
Nov 22
New

Today's Extremes

State Highs State Lows

Community

WunderPhotos

Upload Photos

1,764,617 photos uploaded!

WunderBlogs® & News

By Dr. Jeff Masters
Director of Meteorology, Weather Underground
By Kari Strenfel
Meteorologist, Weather Underground
By Christopher C. Burt
Weather Historian, Weather Underground
October 24, 2014
October 24, 2014
October 24, 2014

Nearby

Snow Depth

Station Depth Elevation
Casper Mountain 0 in 7850 ft
Reno Hill 0 in 8500 ft
Laprele Creek 0 in 8375 ft
Windy Peak 0 in 7900 ft
Sylvan Lake 0 in 8420 ft

Earthquake Activity

City Distance Mag. Time & Date
No recent earthquake activity has been reported nearby.
Minimum magnitude displayed is 2.5.

Coastal Water Temperatures

Place Temperature
No Stations Reporting

Nearby Weather Stations